Time;durP1;ratioP1;P1;durP2;ratioP2;P2;SDS_P1;SDS_P2;PMS_P1;PMS_P2;Temp;Humidity;BMP_temperature;BMP_pressure;BME280_temperature;BME280_humidity;BME280_pressure;Samples;Min_cycle;Max_cycle;Signal;HPM_P1;HPM_P2
2021/10/15 00:01:54;;;;;;;16.88;9.02;;;;;;;7.00;75.62;99332.53;2624298;54;20025;-64
2021/10/15 00:04:24;;;;;;;14.98;10.75;;;;;;;7.03;75.69;99331.41;2624325;54;20030;-64
2021/10/15 00:06:53;;;;;;;14.40;8.68;;;;;;;6.98;76.19;99325.78;2623543;47;20022;-64
2021/10/15 00:09:23;;;;;;;11.35;8.13;;;;;;;7.04;76.15;99327.78;2619268;47;20027;-64
2021/10/15 00:11:53;;;;;;;13.88;9.35;;;;;;;7.03;76.01;99318.28;2619921;47;20034;-65
2021/10/15 00:14:22;;;;;;;13.45;8.75;;;;;;;6.88;76.07;99320.66;2620370;54;20045;-65
2021/10/15 00:16:55;;;;;;;11.68;8.50;;;;;;;6.92;76.57;99320.16;2618641;47;20026;-64
2021/10/15 00:19:25;;;;;;;10.82;8.45;;;;;;;6.98;76.22;99315.25;2619042;54;20552;-64
2021/10/15 00:21:54;;;;;;;12.20;7.95;;;;;;;7.03;76.15;99316.47;2618945;54;20599;-64
2021/10/15 00:24:24;;;;;;;12.55;8.68;;;;;;;6.95;75.59;99309.34;2618900;54;20533;-64
2021/10/15 00:26:54;;;;;;;12.30;8.10;;;;;;;7.03;75.83;99310.38;2618879;54;20038;-65
2021/10/15 00:29:23;;;;;;;10.43;7.72;;;;;;;6.98;75.22;99317.88;2618253;47;20034;-64
2021/10/15 00:31:56;;;;;;;12.27;8.18;;;;;;;6.92;75.36;99309.66;2618302;54;20023;-65
2021/10/15 00:34:26;;;;;;;10.07;7.53;;;;;;;6.87;74.92;99304.06;2617587;54;20529;-64
2021/10/15 00:36:56;;;;;;;11.65;8.80;;;;;;;6.76;74.80;99306.94;2618773;54;20538;-64
2021/10/15 00:39:25;;;;;;;11.57;7.93;;;;;;;6.66;75.47;99306.25;2618653;54;20031;-65
2021/10/15 00:41:55;;;;;;;12.75;8.23;;;;;;;6.63;75.45;99306.53;2618743;54;20041;-64
2021/10/15 00:44:25;;;;;;;11.77;8.68;;;;;;;6.66;75.54;99307.06;2618493;54;20030;-64
2021/10/15 00:46:57;;;;;;;10.00;8.02;;;;;;;6.68;75.58;99286.69;2618635;54;20030;-64
2021/10/15 00:49:26;;;;;;;12.40;8.02;;;;;;;6.72;75.97;99297.72;2618656;54;20031;-64
2021/10/15 00:51:56;;;;;;;11.13;8.85;;;;;;;6.77;75.42;99302.50;2618711;54;20038;-64
2021/10/15 00:54:26;;;;;;;12.02;8.20;;;;;;;6.68;75.36;99293.75;2618411;54;20042;-64
2021/10/15 00:56:56;;;;;;;12.25;8.00;;;;;;;6.62;75.66;99291.78;2618666;54;20030;-64
2021/10/15 00:59:26;;;;;;;11.15;8.98;;;;;;;6.55;75.26;99294.19;2618856;54;20041;-64
2021/10/15 01:01:58;;;;;;;12.40;8.00;;;;;;;6.42;75.38;99286.72;2619384;54;20046;-64
2021/10/15 01:04:29;;;;;;;;;;;;;;;6.45;75.39;99288.22;2618685;54;20034;-64
2021/10/15 01:06:59;;;;;;;10.20;7.70;;;;;;;6.52;75.61;99280.53;2618551;39;20338;-65
2021/10/15 01:09:29;;;;;;;11.00;7.88;;;;;;;6.52;75.08;99268.22;2619104;39;20418;-64
2021/10/15 01:11:59;;;;;;;10.20;7.60;;;;;;;6.53;75.12;99279.53;2618563;54;20035;-64
2021/10/15 01:14:29;;;;;;;11.10;7.57;;;;;;;6.50;75.41;99275.44;2618543;39;20426;-64
2021/10/15 01:17:03;;;;;;;9.45;7.07;;;;;;;6.48;75.04;99280.00;2617994;54;20115;-64
2021/10/15 01:19:33;;;;;;;10.77;8.55;;;;;;;6.41;75.01;99268.50;2617798;54;20023;-64
2021/10/15 01:22:07;;;;;;;9.80;7.43;;;;;;;6.33;75.02;99263.19;2618829;39;20455;-64
2021/10/15 01:24:37;;;;;;;;;;;;;;;6.29;75.51;99261.84;2618545;54;20034;-64
2021/10/15 01:27:10;;;;;;;10.85;8.05;;;;;;;6.23;75.40;99255.41;2618377;54;19947;-65
2021/10/15 01:29:41;;;;;;;13.00;8.50;;;;;;;6.23;75.56;99254.56;2620648;54;20027;-65
2021/10/15 01:32:11;;;;;;;8.70;7.38;;;;;;;6.21;75.60;99254.75;2621802;54;20034;-65
2021/10/15 01:34:41;;;;;;;9.18;7.20;;;;;;;6.06;75.48;99248.38;2621585;54;20042;-65
2021/10/15 01:37:13;;;;;;;9.70;6.95;;;;;;;6.12;76.20;99247.75;2622304;39;20453;-65
2021/10/15 01:39:43;;;;;;;12.05;7.38;;;;;;;6.14;75.82;99244.00;2620600;54;20042;-64
2021/10/15 01:42:53;;;;;;;10.93;8.40;;;;;;;6.04;75.87;99238.06;2619330;54;20027;-66
2021/10/15 01:45:02;;;;;;;10.80;7.45;;;;;;;6.07;76.03;99234.28;2617777;51;20062;-65
2021/10/15 01:47:32;;;;;;;8.57;6.93;;;;;;;6.11;76.04;99236.44;2619138;39;20414;-64
2021/10/15 01:50:01;;;;;;;9.48;6.63;;;;;;;6.23;76.14;99231.78;2619044;54;20031;-64
2021/10/15 01:52:34;;;;;;;8.75;7.10;;;;;;;6.29;75.46;99223.28;2618982;54;20038;-65
2021/10/15 01:55:03;;;;;;;9.88;7.88;;;;;;;6.22;75.29;99221.44;2619105;54;20041;-65
2021/10/15 01:57:33;;;;;;;11.60;7.72;;;;;;;6.17;75.20;99221.91;2619416;39;20517;-65
2021/10/15 02:00:02;;;;;;;9.98;7.18;;;;;;;6.14;75.33;99230.06;2622935;54;20027;-64
2021/10/15 02:02:40;;;;;;;9.10;7.45;;;;;;;6.17;75.52;99220.09;2622111;54;20038;-65
2021/10/15 02:05:12;;;;;;;11.70;7.47;;;;;;;6.20;75.37;99216.31;2621630;54;20046;-64
2021/10/15 02:07:45;;;;;;;10.75;7.85;;;;;;;6.14;75.14;99220.38;2620941;54;20041;-64
2021/10/15 02:10:16;;;;;;;;;;;;;;;6.14;75.35;99225.66;2619168;54;20042;-64
2021/10/15 02:12:50;;;;;;;11.18;7.68;;;;;;;6.19;75.30;99212.06;2618990;54;20058;-64
2021/10/15 02:15:20;;;;;;;9.35;7.47;;;;;;;6.24;75.13;99214.22;2618822;54;20669;-64
2021/10/15 02:17:49;;;;;;;8.60;7.40;;;;;;;6.23;74.53;99218.63;2618738;54;20091;-65
2021/10/15 02:20:21;;;;;;;10.80;7.25;;;;;;;6.20;74.76;99224.19;2619576;51;20030;-65
2021/10/15 02:22:54;;;;;;;9.50;7.38;;;;;;;6.17;75.16;99224.53;2620484;54;20023;-65
2021/10/15 02:25:25;;;;;;;12.32;7.40;;;;;;;6.16;74.99;99217.59;2622229;54;20042;-65
2021/10/15 02:27:55;;;;;;;11.10;7.80;;;;;;;6.21;74.84;99215.34;2620161;54;20038;-65
2021/10/15 02:30:26;;;;;;;11.82;8.02;;;;;;;6.21;74.78;99215.34;2618972;54;20039;-65
2021/10/15 02:32:57;;;;;;;11.80;7.68;;;;;;;6.28;74.54;99207.66;2618610;54;20027;-65
2021/10/15 02:35:27;;;;;;;14.93;9.13;;;;;;;6.27;74.57;99208.66;2618087;47;20030;-65
2021/10/15 02:38:00;;;;;;;14.70;8.68;;;;;;;6.24;74.41;99207.16;2618838;54;20038;-65
2021/10/15 02:40:31;;;;;;;10.95;8.32;;;;;;;6.24;74.95;99201.91;2618663;54;20564;-65
2021/10/15 02:43:01;;;;;;;10.95;8.10;;;;;;;6.25;74.51;99208.00;2618806;54;20032;-65
2021/10/15 02:45:32;;;;;;;12.07;8.70;;;;;;;6.23;74.68;99205.50;2618499;54;20038;-65
2021/10/15 02:48:02;;;;;;;13.73;9.65;;;;;;;6.22;74.96;99197.81;2618793;54;20030;-65
2021/10/15 02:50:31;;;;;;;12.88;9.23;;;;;;;6.20;75.08;99195.31;2618705;54;20061;-65
2021/10/15 02:53:04;;;;;;;17.52;11.73;;;;;;;6.19;75.18;99199.75;2618864;54;20046;-65
2021/10/15 02:55:33;;;;;;;14.77;9.95;;;;;;;6.17;74.98;99195.66;2617983;47;20542;-64
2021/10/15 02:58:03;;;;;;;16.58;10.05;;;;;;;6.17;75.16;99190.41;2618595;54;20034;-65
2021/10/15 03:00:32;;;;;;;15.57;9.95;;;;;;;6.15;75.30;99192.34;2618892;54;20041;-64
2021/10/15 03:03:02;;;;;;;30.35;11.02;;;;;;;5.99;75.14;99193.06;2618042;54;20019;-64
2021/10/15 03:05:32;;;;;;;20.63;12.07;;;;;;;5.81;75.58;99185.19;2618355;54;20545;-64
2021/10/15 03:08:04;;;;;;;14.57;10.65;;;;;;;5.81;75.78;99177.31;2619146;54;20045;-65
2021/10/15 03:10:38;;;;;;;20.17;11.85;;;;;;;5.76;75.65;99176.97;2618565;50;20039;-65
2021/10/15 03:13:07;;;;;;;13.30;9.57;;;;;;;5.65;76.10;99180.63;2618960;54;20038;-65
2021/10/15 03:15:37;;;;;;;14.63;10.98;;;;;;;5.62;76.09;99174.88;2618201;54;20034;-64
2021/10/15 03:18:07;;;;;;;12.82;9.52;;;;;;;5.58;76.75;99182.22;2618282;54;20027;-65
2021/10/15 03:20:37;;;;;;;12.98;10.07;;;;;;;5.65;76.65;99174.56;2618142;54;20037;-65
2021/10/15 03:23:10;;;;;;;13.02;9.55;;;;;;;5.69;76.58;99170.69;2617766;46;20542;-65
2021/10/15 03:25:40;;;;;;;15.10;10.05;;;;;;;5.55;76.02;99171.19;2618199;54;20045;-64
2021/10/15 03:28:09;;;;;;;22.05;15.48;;;;;;;5.51;76.45;99172.47;2618558;54;20045;-64
2021/10/15 03:30:39;;;;;;;18.27;12.45;;;;;;;5.55;76.17;99176.44;2618443;54;20034;-65
2021/10/15 03:33:09;;;;;;;14.05;8.30;;;;;;;5.54;75.64;99177.44;2617739;54;20117;-65
2021/10/15 03:35:39;;;;;;;12.38;8.55;;;;;;;5.44;75.51;99180.13;2618040;54;20027;-65
2021/10/15 03:38:11;;;;;;;9.48;7.65;;;;;;;5.35;75.44;99181.06;2618233;54;20046;-65
2021/10/15 03:40:42;;;;;;;9.97;7.00;;;;;;;5.20;75.56;99181.56;2618164;54;20033;-65
2021/10/15 03:43:11;;;;;;;10.77;8.20;;;;;;;5.13;75.75;99179.66;2617579;54;20846;-65
2021/10/15 03:45:41;;;;;;;10.32;7.45;;;;;;;5.01;76.20;99178.22;2618207;54;20534;-65
2021/10/15 03:48:10;;;;;;;10.77;7.88;;;;;;;5.02;76.27;99183.34;2618338;54;20037;-64
2021/10/15 03:50:40;;;;;;;14.18;10.60;;;;;;;5.16;76.37;99179.38;2618116;54;20050;-65
2021/10/15 03:53:13;;;;;;;11.95;8.65;;;;;;;5.30;76.24;99189.34;2618070;39;20770;-64
2021/10/15 03:55:42;;;;;;;10.70;8.27;;;;;;;5.42;75.98;99180.28;2618158;54;20041;-65
2021/10/15 03:58:12;;;;;;;9.57;8.00;;;;;;;5.53;76.05;99175.78;2618268;54;20033;-64
2021/10/15 04:00:42;;;;;;;10.23;8.57;;;;;;;5.61;75.94;99175.84;2618266;54;20086;-64
2021/10/15 04:03:12;;;;;;;11.20;9.27;;;;;;;5.65;75.34;99172.78;2618228;54;20560;-65
2021/10/15 04:05:42;;;;;;;18.95;12.95;;;;;;;5.67;75.63;99185.72;2617662;47;20041;-64
2021/10/15 04:08:14;;;;;;;12.40;8.75;;;;;;;5.67;75.03;99175.22;2618278;54;20022;-64
2021/10/15 04:10:44;;;;;;;12.85;8.15;;;;;;;5.61;75.02;99174.06;2618108;39;20536;-63
2021/10/15 04:13:14;;;;;;;11.13;8.15;;;;;;;5.52;75.22;99182.00;2618318;54;20073;-64
2021/10/15 04:15:44;;;;;;;15.80;11.13;;;;;;;5.40;74.95;99170.94;2618122;54;20035;-64
2021/10/15 04:18:13;;;;;;;11.40;8.68;;;;;;;5.35;75.74;99181.06;2617577;47;20066;-64
2021/10/15 04:20:43;;;;;;;11.43;8.00;;;;;;;5.42;76.00;99171.59;2618309;54;20034;-64
2021/10/15 04:23:16;;;;;;;11.35;9.05;;;;;;;5.51;75.78;99167.22;2617553;47;20034;-64
2021/10/15 04:25:45;;;;;;;11.82;8.77;;;;;;;5.39;75.86;99164.88;2618216;54;20038;-64
2021/10/15 04:28:16;;;;;;;10.68;8.23;;;;;;;5.46;75.81;99162.44;2618290;54;20560;-64
2021/10/15 04:30:47;;;;;;;10.73;8.45;;;;;;;5.52;75.67;99161.84;2617485;51;20065;-63
2021/10/15 04:33:18;;;;;;;12.00;8.88;;;;;;;5.57;75.71;99169.25;2620281;54;20022;-65
2021/10/15 04:35:48;;;;;;;13.25;10.40;;;;;;;5.58;75.88;99161.22;2621200;47;20034;-65
2021/10/15 04:38:20;;;;;;;12.57;9.88;;;;;;;5.51;75.16;99156.75;2621665;39;20437;-64
2021/10/15 04:40:50;;;;;;;12.73;9.73;;;;;;;5.23;75.27;99149.00;2618415;54;20041;-64
2021/10/15 04:43:20;;;;;;;11.88;9.02;;;;;;;5.21;76.05;99149.13;2617712;54;20065;-64
2021/10/15 04:45:49;;;;;;;10.50;8.45;;;;;;;5.30;76.66;99136.91;2618266;54;20045;-64
2021/10/15 04:48:19;;;;;;;12.77;9.43;;;;;;;5.41;76.43;99141.94;2617693;54;20069;-64
2021/10/15 04:50:49;;;;;;;11.70;9.40;;;;;;;5.47;76.23;99135.28;2617848;47;20026;-64
2021/10/15 04:53:21;;;;;;;19.38;10.48;;;;;;;5.39;75.72;99137.81;2617962;54;20034;-64
2021/10/15 04:55:52;;;;;;;16.08;11.75;;;;;;;5.29;75.75;99132.66;2617960;54;20577;-64
2021/10/15 04:58:21;;;;;;;16.02;10.65;;;;;;;5.27;76.40;99128.53;2618372;54;20032;-64
2021/10/15 05:00:51;;;;;;;14.00;9.75;;;;;;;5.31;76.51;99130.72;2618545;54;20030;-64
2021/10/15 05:03:21;;;;;;;13.52;9.45;;;;;;;5.39;76.49;99130.78;2620231;54;20094;-64
2021/10/15 05:05:50;;;;;;;13.75;9.65;;;;;;;5.41;76.20;99134.06;2621566;54;20034;-65
2021/10/15 05:08:30;;;;;;;14.95;10.50;;;;;;;5.34;76.00;99135.63;2621255;54;20034;-64
2021/10/15 05:11:00;;;;;;;11.05;9.23;;;;;;;5.34;76.69;99127.75;2620991;54;20031;-64
2021/10/15 05:13:29;;;;;;;10.75;8.52;;;;;;;5.41;76.30;99126.19;2621099;54;20610;-64
2021/10/15 05:15:59;;;;;;;9.10;8.10;;;;;;;5.40;76.27;99121.94;2622049;54;20034;-64
2021/10/15 05:18:29;;;;;;;12.48;9.27;;;;;;;5.48;76.57;99121.19;2621805;54;20617;-64
2021/10/15 05:20:59;;;;;;;10.80;9.25;;;;;;;5.54;76.55;99119.72;2621950;47;20030;-64
2021/10/15 05:23:31;;;;;;;11.63;9.50;;;;;;;5.53;76.40;99128.59;2622396;54;20208;-64
2021/10/15 05:26:01;;;;;;;10.93;9.27;;;;;;;5.51;76.03;99126.13;2621674;54;20038;-64
2021/10/15 05:28:30;;;;;;;10.20;8.15;;;;;;;5.55;76.32;99129.25;2621218;54;20034;-64
2021/10/15 05:31:00;;;;;;;11.32;8.60;;;;;;;5.55;76.08;99126.63;2621814;39;20516;-64
2021/10/15 05:33:30;;;;;;;9.80;8.20;;;;;;;5.60;75.91;99116.53;2622092;54;20534;-64
2021/10/15 05:35:59;;;;;;;10.38;8.80;;;;;;;5.60;76.03;99109.47;2619340;54;20103;-64
2021/10/15 05:38:32;;;;;;;9.52;8.05;;;;;;;5.60;75.85;99108.66;2622796;39;20489;-64
2021/10/15 05:41:02;;;;;;;14.45;9.05;;;;;;;5.49;75.80;99117.56;2623162;54;20034;-64
2021/10/15 05:43:31;;;;;;;10.15;8.30;;;;;;;5.26;75.79;99114.59;2619102;54;20045;-64
2021/10/15 05:46:02;;;;;;;23.30;14.10;;;;;;;5.39;75.77;99109.00;2618862;54;20034;-64
2021/10/15 05:48:31;;;;;;;11.32;8.60;;;;;;;5.42;76.29;99106.03;2618703;54;20094;-64
2021/10/15 05:51:01;;;;;;;10.38;8.00;;;;;;;5.39;75.53;99112.44;2618899;54;20031;-64
2021/10/15 05:53:35;;;;;;;11.13;8.25;;;;;;;5.38;75.34;99107.31;2618933;54;20031;-64
2021/10/15 05:56:21;;;;;;;9.50;7.55;;;;;;;5.40;75.95;99111.44;2618780;54;20034;-64
2021/10/15 05:58:53;;;;;;;9.52;7.95;;;;;;;5.44;75.94;99115.41;2618997;54;20130;-64
2021/10/15 06:01:26;;;;;;;10.98;7.72;;;;;;;5.51;75.69;99117.41;2618435;54;20057;-63
2021/10/15 06:04:05;;;;;;;9.97;7.70;;;;;;;5.50;75.53;99115.78;2619369;39;20450;-64
2021/10/15 06:14:59;;;;;;;10.77;8.23;;;;;;;5.66;75.19;99108.03;2618969;54;20031;-64
2021/10/15 06:17:29;;;;;;;15.70;7.75;;;;;;;5.61;75.59;99111.09;2619062;54;20576;-64
2021/10/15 06:19:58;;;;;;;9.80;8.13;;;;;;;5.64;75.21;99113.44;2618841;39;20454;-64
2021/10/15 06:22:29;;;;;;;12.30;8.60;;;;;;;5.66;74.85;99115.88;2618766;54;20026;-64
2021/10/15 06:25:02;;;;;;;9.85;8.30;;;;;;;5.68;75.48;99116.56;2617960;54;20081;-64
2021/10/15 06:27:31;;;;;;;10.25;8.27;;;;;;;5.83;76.22;99122.06;2618436;39;20450;-64
2021/10/15 06:30:01;;;;;;;9.48;8.48;;;;;;;6.01;75.82;99124.69;2619074;39;20388;-64
2021/10/15 06:32:30;;;;;;;10.00;8.32;;;;;;;6.15;74.90;99124.91;2618216;54;20035;-64
2021/10/15 06:35:00;;;;;;;11.95;9.18;;;;;;;6.20;74.85;99130.53;2618507;54;20026;-64
2021/10/15 06:37:30;;;;;;;11.82;9.35;;;;;;;6.20;74.93;99129.69;2617850;46;20050;-64
2021/10/15 06:40:02;;;;;;;9.95;8.85;;;;;;;6.22;74.87;99132.16;2618119;47;20038;-63
2021/10/15 06:42:32;;;;;;;9.93;8.57;;;;;;;6.22;75.06;99137.41;2618324;54;20038;-64
2021/10/15 06:45:01;;;;;;;10.70;8.50;;;;;;;6.26;74.96;99136.94;2618228;54;20050;-65
2021/10/15 06:47:31;;;;;;;11.27;9.48;;;;;;;6.31;74.48;99146.97;2617878;54;20030;-64
2021/10/15 06:50:01;;;;;;;11.10;8.88;;;;;;;6.32;74.61;99144.19;2618770;54;20029;-64
2021/10/15 06:52:36;;;;;;;11.57;9.75;;;;;;;6.31;74.62;99144.34;2618576;54;20037;-64
2021/10/15 06:55:10;;;;;;;11.48;10.00;;;;;;;6.31;74.54;99147.78;2618997;39;20415;-64
2021/10/15 06:57:39;;;;;;;15.57;10.07;;;;;;;6.28;74.35;99153.34;2618658;54;20034;-64
2021/10/15 07:00:10;;;;;;;14.25;11.02;;;;;;;6.24;74.36;99157.28;2618070;47;20034;-65
2021/10/15 07:02:40;;;;;;;14.25;10.50;;;;;;;6.25;74.83;99164.19;2618573;39;20411;-65
2021/10/15 07:05:11;;;;;;;15.93;11.27;;;;;;;6.24;74.78;99152.03;2618012;54;20042;-65
2021/10/15 07:07:41;;;;;;;17.58;9.65;;;;;;;6.27;74.98;99151.72;2618891;39;20437;-65
2021/10/15 07:10:13;;;;;;;11.88;9.65;;;;;;;6.41;74.63;99151.13;2617646;54;20046;-65
2021/10/15 07:12:45;;;;;;;14.18;9.82;;;;;;;6.52;74.63;99139.50;2618926;39;20449;-65
2021/10/15 07:15:17;;;;;;;14.50;10.25;;;;;;;6.67;74.61;99140.56;2618021;39;20457;-65
2021/10/15 07:17:46;;;;;;;13.00;9.80;;;;;;;6.82;74.26;99132.06;2618247;54;20102;-65
2021/10/15 07:20:16;;;;;;;10.68;9.30;;;;;;;6.90;74.13;99122.41;2618609;54;20027;-64
2021/10/15 07:22:45;;;;;;;13.48;9.95;;;;;;;7.04;73.85;99123.56;2618550;54;20030;-64
2021/10/15 07:25:18;;;;;;;11.90;10.20;;;;;;;7.08;74.00;99127.53;2617578;47;20027;-64
2021/10/15 07:27:47;;;;;;;12.98;9.90;;;;;;;7.24;73.84;99116.19;2619436;39;20467;-64
2021/10/15 07:30:17;;;;;;;10.93;9.45;;;;;;;7.33;73.77;99128.38;2621081;54;20041;-64
2021/10/15 07:32:52;;;;;;;11.38;9.95;;;;;;;7.40;74.01;99132.00;2618495;54;20042;-64
2021/10/15 07:35:22;;;;;;;11.65;9.25;;;;;;;7.55;73.85;99134.78;2618350;54;20050;-64
2021/10/15 07:37:52;;;;;;;24.83;10.43;;;;;;;7.78;73.50;99140.19;2618305;39;20418;-64
2021/10/15 07:40:24;;;;;;;14.70;10.75;;;;;;;7.97;73.15;99123.22;2617508;54;20026;-64
2021/10/15 07:42:54;;;;;;;11.82;9.27;;;;;;;8.12;72.55;99126.81;2618140;54;20037;-64
2021/10/15 07:45:25;;;;;;;12.73;9.43;;;;;;;8.18;72.49;99131.38;2617761;54;20042;-64
2021/10/15 07:48:03;;;;;;;15.48;11.07;;;;;;;8.29;72.83;99139.94;2617664;47;20069;-64
2021/10/15 07:50:33;;;;;;;13.70;10.25;;;;;;;8.42;72.78;99135.78;2618933;54;20078;-64
2021/10/15 07:53:02;;;;;;;11.27;9.80;;;;;;;8.52;72.60;99134.75;2621169;54;20066;-65
2021/10/15 07:55:35;;;;;;;11.60;10.05;;;;;;;8.51;72.58;99143.66;2622282;54;20026;-64
2021/10/15 07:58:05;;;;;;;12.30;9.98;;;;;;;8.61;72.21;99146.91;2622068;39;20454;-64
2021/10/15 08:00:36;;;;;;;11.38;10.18;;;;;;;8.65;72.32;99148.19;2621593;47;20030;-64
2021/10/15 08:03:05;;;;;;;12.25;10.48;;;;;;;8.61;72.39;99152.16;2621920;54;20034;-64
2021/10/15 08:05:36;;;;;;;13.30;10.63;;;;;;;8.56;72.46;99144.78;2621850;54;20099;-64
2021/10/15 08:08:06;;;;;;;13.13;10.60;;;;;;;8.59;72.56;99152.34;2621472;54;20045;-64
2021/10/15 08:10:38;;;;;;;14.70;10.40;;;;;;;8.70;72.84;99148.53;2620436;54;20134;-65
2021/10/15 08:13:08;;;;;;;12.02;10.55;;;;;;;8.83;72.97;99135.59;2620388;54;20031;-64
2021/10/15 08:15:38;;;;;;;14.93;11.23;;;;;;;8.91;72.75;99140.00;2620379;54;20066;-65
2021/10/15 08:18:07;;;;;;;13.13;10.70;;;;;;;9.04;72.19;99145.53;2619833;49;20034;-64
2021/10/15 08:20:37;;;;;;;14.50;10.68;;;;;;;9.07;72.38;99147.00;2620593;54;20037;-64
2021/10/15 08:23:07;;;;;;;18.98;10.68;;;;;;;9.09;72.41;99145.81;2620602;54;20026;-65
2021/10/15 08:25:39;;;;;;;12.02;10.73;;;;;;;9.28;72.21;99149.00;2620977;39;20445;-64
2021/10/15 08:28:11;;;;;;;14.55;10.60;;;;;;;9.41;72.02;99149.25;2617913;47;20077;-64
2021/10/15 08:30:41;;;;;;;13.75;10.90;;;;;;;9.59;71.82;99149.78;2618219;54;20014;-64
2021/10/15 08:33:11;;;;;;;12.52;10.90;;;;;;;9.73;71.86;99149.97;2618178;54;20010;-64
2021/10/15 08:35:40;;;;;;;12.10;10.85;;;;;;;9.82;71.71;99155.00;2618069;54;20034;-64
2021/10/15 08:38:10;;;;;;;11.95;9.38;;;;;;;9.97;71.31;99151.59;2618447;39;20086;-64
2021/10/15 08:40:44;;;;;;;12.90;10.23;;;;;;;10.13;71.33;99146.94;2618030;54;20031;-64
2021/10/15 08:43:13;;;;;;;13.85;9.93;;;;;;;10.31;70.51;99151.09;2618146;54;20118;-64
2021/10/15 08:45:44;;;;;;;10.55;8.75;;;;;;;10.42;70.24;99153.28;2617709;54;20069;-64
2021/10/15 08:48:13;;;;;;;10.93;9.18;;;;;;;10.62;70.18;99150.88;2617927;54;20091;-64
2021/10/15 08:50:46;;;;;;;9.90;8.90;;;;;;;10.81;69.55;99149.47;2617330;47;20035;-64
2021/10/15 08:53:15;;;;;;;12.02;9.93;;;;;;;10.86;69.71;99145.28;2617967;54;20034;-64
2021/10/15 08:55:47;;;;;;;13.57;9.65;;;;;;;11.00;69.07;99150.72;2617713;54;20046;-64
2021/10/15 08:58:17;;;;;;;11.77;9.95;;;;;;;11.08;68.95;99151.41;2618271;54;20058;-64
2021/10/15 09:00:47;;;;;;;11.50;9.45;;;;;;;11.26;68.78;99147.53;2618241;54;20167;-64
2021/10/15 09:03:19;;;;;;;11.13;9.73;;;;;;;11.40;68.37;99144.00;2617813;54;20030;-64
2021/10/15 09:05:57;;;;;;;11.07;9.25;;;;;;;11.51;67.83;99150.59;2617655;54;20066;-65
2021/10/15 09:08:28;;;;;;;10.63;9.35;;;;;;;11.48;67.54;99145.72;2617787;54;20038;-64
2021/10/15 09:11:01;;;;;;;11.02;9.65;;;;;;;11.48;67.43;99148.38;2617873;54;20081;-64
2021/10/15 09:13:33;;;;;;;12.15;9.27;;;;;;;11.53;67.54;99140.66;2618035;54;20537;-64
2021/10/15 09:16:05;;;;;;;12.75;10.25;;;;;;;11.44;66.94;99142.63;2617546;54;20074;-64
2021/10/15 09:18:38;;;;;;;14.20;8.82;;;;;;;11.48;67.25;99153.66;2617818;54;20030;-64
2021/10/15 09:21:16;;;;;;;11.65;8.57;;;;;;;11.47;67.20;99149.34;2617117;47;20051;-64
2021/10/15 09:24:01;;;;;;;;;;;;;;;;;;;;;
2021/10/15 09:26:33;;;;;;;10.77;9.68;;;;;;;11.56;66.88;99153.53;2617012;47;20027;-64
2021/10/15 09:29:06;;;;;;;15.90;9.15;;;;;;;11.61;66.39;99157.22;2617782;54;20553;-64
2021/10/15 09:31:39;;;;;;;11.45;8.63;;;;;;;11.68;66.34;99153.84;2617955;54;20026;-64
2021/10/15 09:34:14;;;;;;;12.77;10.10;;;;;;;11.80;66.32;99160.25;2617871;54;20114;-64
2021/10/15 09:36:50;;;;;;;11.65;9.60;;;;;;;11.79;65.50;99163.88;2617156;47;20034;-64
2021/10/15 09:39:30;;;;;;;10.23;8.85;;;;;;;11.80;65.58;99162.91;2617867;54;20077;-64
2021/10/15 09:42:02;;;;;;;13.27;9.55;;;;;;;11.71;64.80;99162.19;2617843;54;20034;-64
2021/10/15 09:44:33;;;;;;;9.90;8.90;;;;;;;11.65;65.37;99174.38;2616931;47;20038;-64
2021/10/15 09:47:17;;;;;;;11.20;9.38;;;;;;;11.63;65.56;99159.69;2617945;54;20038;-64
2021/10/15 09:49:52;;;;;;;11.15;9.25;;;;;;;11.61;65.35;99167.00;2617460;47;20034;-64
2021/10/15 09:52:38;;;;;;;12.05;9.18;;;;;;;11.63;65.50;99173.75;2620237;54;20029;-64
2021/10/15 09:55:20;;;;;;;11.02;8.93;;;;;;;11.73;64.93;99172.63;2620195;54;20035;-64
2021/10/15 09:57:53;;;;;;;13.65;9.70;;;;;;;11.80;65.00;99166.38;2620432;54;20031;-64
2021/10/15 10:00:27;;;;;;;12.50;10.02;;;;;;;11.88;64.86;99170.75;2620584;39;20457;-64
2021/10/15 10:02:57;;;;;;;18.17;11.18;;;;;;;12.00;64.30;99155.97;2620177;54;20118;-64
2021/10/15 10:05:27;;;;;;;13.05;9.00;;;;;;;12.10;64.06;99158.25;2618247;54;20034;-64
2021/10/15 10:07:57;;;;;;;15.75;10.23;;;;;;;12.34;63.87;99149.03;2618312;54;20030;-64
2021/10/15 10:10:29;;;;;;;10.45;8.50;;;;;;;12.49;62.90;99154.19;2619140;39;20453;-64
2021/10/15 10:13:02;;;;;;;10.65;8.20;;;;;;;12.60;62.56;99156.28;2619039;54;20043;-64
2021/10/15 10:15:34;;;;;;;13.43;8.32;;;;;;;12.70;61.68;99151.47;2617958;47;20065;-64
2021/10/15 10:18:12;;;;;;;12.07;8.13;;;;;;;12.66;61.14;99150.22;2618842;39;20494;-65
2021/10/15 10:20:46;;;;;;;11.57;8.23;;;;;;;12.66;60.91;99155.53;2620407;54;20031;-64
2021/10/15 10:23:21;;;;;;;10.10;8.02;;;;;;;12.69;60.93;99155.09;2620559;39;20438;-64
2021/10/15 10:25:51;;;;;;;11.73;8.30;;;;;;;12.65;60.20;99153.84;2620471;47;20045;-65
2021/10/15 10:28:26;;;;;;;11.90;8.05;;;;;;;12.68;60.85;99148.16;2620702;54;20766;-65
2021/10/15 10:30:59;;;;;;;11.15;7.70;;;;;;;12.74;60.13;99150.03;2620720;54;20041;-65
2021/10/15 10:33:29;;;;;;;10.15;7.32;;;;;;;12.75;60.45;99148.22;2619830;39;20414;-65
2021/10/15 10:36:13;;;;;;;12.27;9.25;;;;;;;12.73;59.80;99151.03;2618758;54;20077;-65
2021/10/15 10:38:43;;;;;;;13.73;9.07;;;;;;;12.83;59.82;99135.59;2619002;54;20034;-64
2021/10/15 10:41:24;;;;;;;12.57;9.77;;;;;;;12.94;59.65;99142.16;2618813;54;20033;-64
2021/10/15 10:44:16;;;;;;;10.50;8.05;;;;;;;13.07;59.23;99131.56;2618941;54;20026;-64
2021/10/15 10:47:17;;;;;;;10.45;7.53;;;;;;;13.07;58.70;99128.09;2618694;54;20037;-64
2021/10/15 10:50:14;;;;;;;10.50;7.22;;;;;;;13.06;59.24;99129.09;2618512;54;20033;-64
2021/10/15 10:53:11;;;;;;;12.35;8.80;;;;;;;13.22;59.45;99131.38;2618880;54;20026;-64
2021/10/15 10:55:47;;;;;;;11.30;8.52;;;;;;;13.30;59.55;99131.22;2618400;54;20023;-65
2021/10/15 10:58:35;;;;;;;8.57;7.15;;;;;;;13.33;59.37;99130.81;2618863;54;20031;-65
2021/10/15 11:01:29;;;;;;;9.38;7.75;;;;;;;13.36;59.15;99135.75;2618419;54;20046;-64
2021/10/15 11:04:01;;;;;;;9.40;6.65;;;;;;;13.44;58.88;99125.97;2618523;54;20019;-65
2021/10/15 11:06:59;;;;;;;9.25;7.20;;;;;;;13.54;59.22;99123.69;2618236;54;20042;-64
2021/10/15 11:09:34;;;;;;;10.05;7.68;;;;;;;13.67;58.97;99115.72;2618597;54;20045;-65
2021/10/15 11:12:04;;;;;;;16.90;14.60;;;;;;;13.74;58.87;99121.84;2618641;54;20946;-64
2021/10/15 11:14:54;;;;;;;11.15;8.63;;;;;;;13.74;59.01;99111.22;2617738;47;20065;-65
2021/10/15 11:17:32;;;;;;;9.38;6.78;;;;;;;13.77;58.94;99110.81;2618367;54;20030;-65
2021/10/15 11:20:20;;;;;;;9.13;6.68;;;;;;;13.61;58.61;99108.59;2618187;54;20552;-65
2021/10/15 11:22:56;;;;;;;8.93;7.07;;;;;;;13.66;58.49;99103.47;2618313;54;20038;-65
2021/10/15 11:25:28;;;;;;;8.45;6.63;;;;;;;13.57;58.57;99105.53;2618095;54;20063;-64
2021/10/15 11:28:00;;;;;;;8.75;6.80;;;;;;;13.61;58.97;99108.59;2618751;54;20030;-64
2021/10/15 11:30:34;;;;;;;9.30;6.90;;;;;;;13.65;58.60;99111.66;2618529;54;20023;-64
2021/10/15 11:33:09;;;;;;;;;;;;;;;13.62;58.58;99115.53;2618491;54;20027;-64
2021/10/15 11:35:41;;;;;;;10.48;6.45;;;;;;;13.65;59.13;99112.47;2618306;54;19945;-64
2021/10/15 11:38:13;;;;;;;8.00;6.30;;;;;;;13.74;58.50;99105.91;2617978;47;20030;-64
2021/10/15 11:40:45;;;;;;;13.18;9.20;;;;;;;13.84;58.77;99105.53;2618536;54;20023;-64
2021/10/15 11:43:22;;;;;;;12.57;6.28;;;;;;;13.88;58.23;99102.25;2618496;54;20038;-64
2021/10/15 11:45:54;;;;;;;8.48;6.47;;;;;;;13.95;58.46;99096.09;2618273;54;20030;-64
2021/10/15 11:48:29;;;;;;;8.32;6.68;;;;;;;14.05;58.33;99091.97;2618441;54;20038;-64
2021/10/15 11:51:02;;;;;;;12.57;6.50;;;;;;;14.15;58.54;99082.75;2618037;54;20033;-64
2021/10/15 11:53:33;;;;;;;12.48;9.25;;;;;;;14.29;57.29;99084.38;2618656;54;20054;-64
2021/10/15 11:56:06;;;;;;;9.40;6.53;;;;;;;14.35;57.00;99081.66;2618200;47;20046;-64
2021/10/15 11:58:40;;;;;;;11.77;7.68;;;;;;;14.27;56.90;99089.88;2618625;54;20061;-64
2021/10/15 12:01:19;;;;;;;7.50;5.80;;;;;;;14.30;56.88;99086.00;2618336;54;20029;-64
2021/10/15 12:03:55;;;;;;;11.70;6.78;;;;;;;14.47;56.87;99078.34;2618395;54;20026;-64
2021/10/15 12:06:27;;;;;;;9.65;7.00;;;;;;;14.63;56.36;99072.59;2618558;39;20459;-64